Time;durP1;ratioP1;P1;durP2;ratioP2;P2;SDS_P1;SDS_P2;PMS_P1;PMS_P2;Temp;Humidity;BMP_temperature;BMP_pressure;BME280_temperature;BME280_humidity;BME280_pressure;Samples;Min_cycle;Max_cycle;Signal;HPM_P1;HPM_P2
2022/03/24 00:02:11;;;;;;;19.10;14.18;;;;;;;10.53;38.30;97743.34;5094408;28;20405;-67
2022/03/24 00:04:37;;;;;;;18.63;13.80;;;;;;;10.34;38.93;97745.78;5080974;28;20488;-68
2022/03/24 00:07:03;;;;;;;19.37;13.90;;;;;;;10.16;39.38;97744.69;5074544;28;20475;-69
2022/03/24 00:09:29;;;;;;;19.08;14.25;;;;;;;10.07;39.65;97743.28;5077712;28;20390;-68
2022/03/24 00:11:55;;;;;;;19.67;14.00;;;;;;;10.09;39.38;97739.44;5094190;28;20945;-68
2022/03/24 00:14:21;;;;;;;18.40;13.75;;;;;;;9.95;40.48;97741.25;5065582;28;20412;-68
2022/03/24 00:16:46;;;;;;;19.17;13.70;;;;;;;9.90;40.73;97735.00;5074601;28;20805;-64
2022/03/24 00:19:12;;;;;;;19.83;13.73;;;;;;;9.85;40.89;97737.41;5075222;28;20431;-66
2022/03/24 00:21:37;;;;;;;17.13;13.50;;;;;;;9.68;40.66;97744.00;5074093;28;20407;-66
2022/03/24 00:24:03;;;;;;;18.65;13.45;;;;;;;9.62;40.98;97740.38;5081198;28;20436;-67
2022/03/24 00:26:29;;;;;;;18.55;13.40;;;;;;;9.65;40.68;97736.53;5082482;28;20895;-66
2022/03/24 00:28:54;;;;;;;19.45;13.95;;;;;;;9.68;40.47;97736.97;5073936;28;20391;-66
2022/03/24 00:31:20;;;;;;;18.93;13.40;;;;;;;9.60;40.66;97735.31;5075144;28;20398;-70
2022/03/24 00:33:45;;;;;;;21.33;13.75;;;;;;;9.48;40.59;97730.84;5093237;28;20402;-66
2022/03/24 00:36:11;;;;;;;19.27;14.37;;;;;;;9.39;41.48;97732.03;5093722;28;20472;-65
2022/03/24 00:38:37;;;;;;;22.65;14.57;;;;;;;9.32;41.48;97734.63;5092024;28;20390;-68
2022/03/24 00:41:03;;;;;;;22.17;14.67;;;;;;;9.26;41.73;97731.97;5075111;28;20392;-66
2022/03/24 00:43:30;;;;;;;21.17;15.10;;;;;;;9.21;42.27;97726.50;5073754;28;20386;-66
2022/03/24 00:45:55;;;;;;;20.75;14.48;;;;;;;9.18;41.97;97732.97;5055610;28;20486;-65
2022/03/24 00:48:21;;;;;;;21.67;14.93;;;;;;;8.95;42.57;97727.19;5055864;28;20926;-66
2022/03/24 00:50:47;;;;;;;22.53;15.60;;;;;;;8.81;42.80;97726.31;5070862;28;20390;-66
2022/03/24 00:53:12;;;;;;;19.73;14.52;;;;;;;8.88;42.58;97729.75;5092701;28;20408;-68
2022/03/24 00:55:39;;;;;;;18.30;13.70;;;;;;;8.83;42.71;97720.88;5069003;28;20459;-67
2022/03/24 00:58:05;;;;;;;19.95;14.73;;;;;;;8.69;43.10;97722.63;5073618;28;20468;-67
2022/03/24 01:00:31;;;;;;;20.45;14.35;;;;;;;8.51;43.79;97723.09;5086434;28;20392;-67
2022/03/24 01:02:58;;;;;;;19.70;14.75;;;;;;;8.37;44.19;97718.75;5092932;28;20758;-68
2022/03/24 01:05:24;;;;;;;20.10;13.57;;;;;;;8.31;44.43;97717.72;5074995;28;20385;-68
2022/03/24 01:07:50;;;;;;;20.17;14.13;;;;;;;8.20;45.19;97709.53;5074480;28;20866;-68
2022/03/24 01:10:17;;;;;;;18.10;13.67;;;;;;;8.10;45.47;97715.09;5074398;28;20390;-68
2022/03/24 01:12:44;;;;;;;18.75;13.15;;;;;;;7.93;45.88;97705.91;5092621;28;20435;-67
2022/03/24 01:15:11;;;;;;;18.80;13.52;;;;;;;7.88;46.14;97708.28;5072961;28;20398;-67
2022/03/24 01:17:37;;;;;;;19.15;13.38;;;;;;;8.07;45.84;97712.06;5092800;28;20754;-67
2022/03/24 01:20:04;;;;;;;17.40;12.90;;;;;;;7.85;46.37;97708.66;5092276;28;20390;-67
2022/03/24 01:22:29;;;;;;;19.00;13.40;;;;;;;7.77;46.69;97706.97;5088846;28;20521;-67
2022/03/24 01:24:56;;;;;;;18.43;12.83;;;;;;;7.77;46.84;97706.97;5088265;28;20395;-67
2022/03/24 01:27:25;;;;;;;19.73;13.85;;;;;;;7.71;47.02;97696.47;5072781;28;20420;-67
2022/03/24 01:29:51;;;;;;;16.33;13.07;;;;;;;7.59;47.32;97701.34;5038246;28;20456;-67
2022/03/24 01:32:17;;;;;;;19.90;13.38;;;;;;;7.50;47.74;97697.25;5072560;28;20483;-66
2022/03/24 01:34:43;;;;;;;17.83;13.70;;;;;;;7.51;48.22;97696.28;5088931;28;20412;-67
2022/03/24 01:37:08;;;;;;;23.35;14.32;;;;;;;7.61;47.87;97690.75;5054743;28;20452;-66
2022/03/24 01:39:33;;;;;;;20.93;13.83;;;;;;;7.64;47.44;97695.56;5072218;28;20396;-67
2022/03/24 01:42:00;;;;;;;19.70;13.63;;;;;;;7.62;47.97;97695.78;5072475;28;20886;-67
2022/03/24 01:44:27;;;;;;;19.38;14.00;;;;;;;7.73;47.67;97684.03;5054466;28;20899;-67
2022/03/24 01:47:00;;;;;;;20.10;13.77;;;;;;;7.43;47.73;97681.53;5080667;28;20420;-67
2022/03/24 01:49:27;;;;;;;20.17;14.23;;;;;;;7.67;47.82;97690.81;5072604;28;20391;-67
2022/03/24 01:51:54;;;;;;;20.40;14.15;;;;;;;7.53;48.08;97681.22;5074582;28;20482;-66
2022/03/24 01:54:22;;;;;;;20.98;14.65;;;;;;;7.46;48.13;97680.38;5087109;28;20425;-67
2022/03/24 01:56:47;;;;;;;18.27;13.55;;;;;;;7.53;47.83;97681.22;5091587;28;20571;-67
2022/03/24 01:59:16;;;;;;;20.70;14.20;;;;;;;7.56;47.78;97680.88;5091984;28;20794;-67
2022/03/24 02:01:43;;;;;;;19.90;14.90;;;;;;;7.58;47.52;97681.47;5072341;28;20397;-67
2022/03/24 02:04:09;;;;;;;23.50;15.35;;;;;;;7.74;46.91;97675.22;5091621;28;20473;-67
2022/03/24 02:06:36;;;;;;;19.85;14.25;;;;;;;7.91;46.41;97687.03;5091963;28;20400;-66
2022/03/24 02:09:03;;;;;;;20.27;14.30;;;;;;;8.03;46.02;97685.50;5091971;28;20889;-71
2022/03/24 02:11:29;;;;;;;21.08;15.10;;;;;;;8.01;46.43;97689.31;5080735;28;20479;-67
2022/03/24 02:13:55;;;;;;;20.80;14.32;;;;;;;8.11;45.92;97684.59;5075079;28;20744;-67
2022/03/24 02:16:27;;;;;;;20.55;14.57;;;;;;;7.99;46.14;97678.25;5089769;28;20473;-67
2022/03/24 02:18:58;;;;;;;24.15;14.77;;;;;;;7.61;47.13;97678.50;5091793;28;20390;-67
2022/03/24 02:21:23;;;;;;;20.05;13.95;;;;;;;7.64;46.85;97679.94;5091849;28;20474;-67
2022/03/24 02:23:50;;;;;;;20.20;14.53;;;;;;;7.73;46.72;97679.63;5066436;28;20404;-67
2022/03/24 02:26:16;;;;;;;19.55;14.38;;;;;;;7.66;46.48;97677.94;5071898;28;20483;-68
2022/03/24 02:28:42;;;;;;;20.05;14.43;;;;;;;7.26;47.48;97682.75;5071680;28;20395;-67
2022/03/24 02:31:09;;;;;;;19.63;14.38;;;;;;;7.13;48.23;97680.00;5071803;28;20399;-67
2022/03/24 02:33:35;;;;;;;19.92;13.35;;;;;;;7.02;48.53;97680.47;5075610;28;20462;-67
2022/03/24 02:36:00;;;;;;;18.23;13.60;;;;;;;6.80;48.96;97679.56;5091487;28;20414;-67
2022/03/24 02:38:26;;;;;;;19.83;13.80;;;;;;;6.82;49.00;97672.38;5086965;28;20482;-67
2022/03/24 02:40:51;;;;;;;20.40;14.00;;;;;;;6.81;49.44;97672.56;5080431;28;20382;-67
2022/03/24 02:43:20;;;;;;;18.87;13.93;;;;;;;6.83;49.51;97673.19;5074939;28;20392;-67
2022/03/24 02:45:46;;;;;;;21.40;14.27;;;;;;;6.85;49.88;97671.22;5072852;28;20401;-67
2022/03/24 02:48:15;;;;;;;18.92;14.20;;;;;;;6.76;50.39;97674.91;5071773;28;20387;-67
2022/03/24 02:50:40;;;;;;;21.67;15.00;;;;;;;6.71;50.37;97672.03;5071199;28;20399;-67
2022/03/24 02:53:06;;;;;;;21.57;14.60;;;;;;;6.59;50.57;97671.66;5071883;28;20481;-67
2022/03/24 02:55:31;;;;;;;20.70;14.40;;;;;;;6.60;50.85;97670.69;5071192;28;20526;-68
2022/03/24 02:57:57;;;;;;;23.07;15.03;;;;;;;6.65;50.80;97670.94;5072876;28;20485;-66
2022/03/24 03:00:25;;;;;;;20.27;15.18;;;;;;;6.75;50.92;97668.88;5095123;28;20394;-67
2022/03/24 03:02:54;;;;;;;21.40;14.43;;;;;;;6.75;50.60;97671.47;5095279;28;20493;-67
2022/03/24 03:05:22;;;;;;;21.07;14.87;;;;;;;6.84;50.78;97672.22;5095731;28;20425;-67
2022/03/24 03:07:47;;;;;;;20.90;15.27;;;;;;;6.81;50.59;97675.97;5058677;28;20729;-67
2022/03/24 03:10:13;;;;;;;20.73;15.20;;;;;;;6.83;50.52;97674.00;5075400;28;20399;-66
2022/03/24 03:12:39;;;;;;;22.55;15.95;;;;;;;6.92;50.62;97680.72;5075362;28;20399;-67
2022/03/24 03:15:05;;;;;;;21.00;14.90;;;;;;;6.99;50.20;97670.38;5075361;28;20449;-67
2022/03/24 03:17:33;;;;;;;21.87;15.67;;;;;;;6.97;50.41;97672.34;5090990;28;20421;-66
2022/03/24 03:19:59;;;;;;;21.92;15.57;;;;;;;6.91;50.45;97675.72;5094721;28;20398;-68
2022/03/24 03:22:24;;;;;;;22.23;15.73;;;;;;;6.88;50.57;97668.25;5088948;28;20380;-67
2022/03/24 03:24:49;;;;;;;20.27;14.77;;;;;;;6.89;50.38;97675.88;5057057;28;20481;-67
2022/03/24 03:27:15;;;;;;;22.87;15.00;;;;;;;6.99;50.54;97681.63;5057207;28;20898;-67
2022/03/24 03:29:42;;;;;;;21.77;15.43;;;;;;;6.92;50.07;97672.91;5075302;28;20460;-67
2022/03/24 03:32:09;;;;;;;23.38;16.15;;;;;;;6.99;50.09;97670.38;5090676;28;20425;-67
2022/03/24 03:34:34;;;;;;;22.55;15.85;;;;;;;6.80;50.75;97676.94;5074665;28;20419;-67
2022/03/24 03:37:00;;;;;;;24.17;15.95;;;;;;;6.80;50.65;97676.94;5074841;28;20421;-67
2022/03/24 03:39:26;;;;;;;23.63;16.33;;;;;;;6.69;51.62;97675.59;5074938;28;20384;-67
2022/03/24 03:41:52;;;;;;;21.95;14.77;;;;;;;6.73;51.45;97676.06;5091509;28;20385;-67
2022/03/24 03:44:18;;;;;;;22.47;15.17;;;;;;;6.58;51.89;97681.25;5057083;28;20399;-68
2022/03/24 03:46:44;;;;;;;23.13;16.00;;;;;;;6.77;51.20;97679.94;5074691;28;20864;-67
2022/03/24 03:49:10;;;;;;;25.05;16.38;;;;;;;7.00;51.06;97680.63;5056546;28;20383;-67
2022/03/24 03:51:37;;;;;;;23.52;15.73;;;;;;;6.74;51.55;97685.50;5074719;28;20427;-67
2022/03/24 03:54:03;;;;;;;21.70;15.40;;;;;;;6.58;52.15;97690.88;5093410;28;20745;-68
2022/03/24 03:56:29;;;;;;;24.60;15.23;;;;;;;6.17;53.63;97685.28;5094037;28;20807;-66
2022/03/24 03:58:54;;;;;;;22.00;15.43;;;;;;;6.09;53.92;97685.34;5085189;28;20430;-66
2022/03/24 04:01:19;;;;;;;21.53;15.17;;;;;;;5.90;54.89;97685.84;5074773;28;20394;-67
2022/03/24 04:03:45;;;;;;;22.63;14.80;;;;;;;5.93;54.89;97691.47;5090664;28;20390;-67
2022/03/24 04:06:12;;;;;;;21.40;15.15;;;;;;;5.97;54.70;97691.94;5088101;28;20482;-67
2022/03/24 04:08:39;;;;;;;20.95;15.35;;;;;;;5.94;54.98;97681.88;5075012;28;20391;-67
2022/03/24 04:11:09;;;;;;;21.65;15.85;;;;;;;5.88;55.51;97691.19;5073548;28;20392;-66
2022/03/24 04:13:42;;;;;;;22.73;15.63;;;;;;;5.79;55.58;97694.81;5074246;28;20403;-67
2022/03/24 04:16:13;;;;;;;22.45;15.18;;;;;;;5.60;56.77;97692.66;5074115;28;20507;-69
2022/03/24 04:18:40;;;;;;;22.90;14.85;;;;;;;5.49;56.69;97685.25;5082643;28;20428;-67
2022/03/24 04:21:07;;;;;;;21.70;15.70;;;;;;;5.43;57.13;97691.97;5062813;28;20406;-67
2022/03/24 04:23:32;;;;;;;20.05;14.90;;;;;;;5.65;56.74;97692.97;5074281;28;20387;-68
2022/03/24 04:25:58;;;;;;;22.20;15.20;;;;;;;5.41;57.37;97694.72;5073980;28;20449;-67
2022/03/24 04:28:23;;;;;;;19.97;14.80;;;;;;;5.32;57.49;97700.16;5073930;28;20467;-66
2022/03/24 04:30:48;;;;;;;23.15;15.65;;;;;;;5.41;57.36;97686.13;5083394;28;20418;-67
2022/03/24 04:33:15;;;;;;;20.77;14.97;;;;;;;5.27;57.96;97695.47;5093366;28;20390;-66
2022/03/24 04:35:41;;;;;;;21.55;14.27;;;;;;;5.36;57.38;97691.03;5090980;28;20874;-67
2022/03/24 04:38:08;;;;;;;21.77;15.30;;;;;;;5.35;57.65;97690.22;5073643;28;20396;-67
2022/03/24 04:40:34;;;;;;;21.83;15.07;;;;;;;5.39;57.06;97688.91;5082751;28;20544;-66
2022/03/24 04:42:59;;;;;;;24.70;15.82;;;;;;;5.50;56.63;97699.88;5093663;28;20512;-66
2022/03/24 04:45:27;;;;;;;21.38;14.93;;;;;;;5.52;56.91;97687.53;5093560;28;20386;-66
2022/03/24 04:47:53;;;;;;;24.75;14.73;;;;;;;5.77;56.00;97692.38;5080030;28;20415;-66
2022/03/24 04:50:18;;;;;;;23.48;15.80;;;;;;;5.50;56.88;97694.69;5073305;28;20515;-69
2022/03/24 04:52:45;;;;;;;20.23;14.67;;;;;;;5.34;56.76;97693.81;5054834;28;20829;-67
2022/03/24 04:55:12;;;;;;;23.30;14.77;;;;;;;5.41;56.72;97693.91;5064111;28;20543;-66
2022/03/24 04:57:38;;;;;;;22.00;15.43;;;;;;;5.35;56.97;97687.59;5055605;28;20397;-67
2022/03/24 05:00:05;;;;;;;20.70;14.13;;;;;;;5.43;57.73;97690.16;5052893;28;20399;-67
2022/03/24 05:02:31;;;;;;;23.52;15.07;;;;;;;5.46;56.89;97691.63;5052750;28;20390;-66
2022/03/24 05:04:57;;;;;;;22.90;15.13;;;;;;;5.34;57.42;97695.59;5064224;28;20449;-67
2022/03/24 05:07:23;;;;;;;20.20;14.50;;;;;;;5.20;58.47;97704.91;5072905;28;20434;-67
2022/03/24 05:09:50;;;;;;;21.17;14.57;;;;;;;5.16;58.70;97695.03;5072116;28;20457;-67
2022/03/24 05:12:16;;;;;;;23.98;15.20;;;;;;;5.19;58.70;97692.91;5066249;28;20901;-67
2022/03/24 05:14:42;;;;;;;23.17;14.38;;;;;;;5.04;58.65;97697.19;5063277;28;20766;-67
2022/03/24 05:17:07;;;;;;;20.42;14.93;;;;;;;4.80;59.64;97702.47;5071513;28;20729;-66
2022/03/24 05:19:34;;;;;;;20.00;14.38;;;;;;;4.93;59.99;97702.75;5072179;28;20388;-67
2022/03/24 05:22:01;;;;;;;19.87;14.70;;;;;;;4.99;59.30;97702.09;5072040;28;20509;-67
2022/03/24 05:24:26;;;;;;;18.35;14.43;;;;;;;4.76;59.72;97706.38;5063042;28;20405;-67
2022/03/24 05:26:51;;;;;;;21.17;14.98;;;;;;;4.78;60.16;97701.84;5053038;28;20408;-67
2022/03/24 05:29:17;;;;;;;19.57;14.10;;;;;;;4.73;60.05;97704.13;5052976;28;20874;-67
2022/03/24 05:31:42;;;;;;;21.08;14.43;;;;;;;4.89;60.03;97698.88;5050876;28;20745;-67
2022/03/24 05:34:08;;;;;;;20.38;14.70;;;;;;;4.85;59.65;97702.78;5052991;28;20393;-67
2022/03/24 05:36:34;;;;;;;20.70;14.73;;;;;;;5.07;59.97;97703.84;5052245;28;20401;-67
2022/03/24 05:38:59;;;;;;;28.63;15.00;;;;;;;5.22;58.65;97705.56;5064503;28;20388;-67
2022/03/24 05:41:26;;;;;;;20.87;14.53;;;;;;;5.35;58.92;97695.41;5069693;28;20407;-67
2022/03/24 05:44:03;;;;;;;22.30;15.68;;;;;;;5.59;57.79;97702.25;5071765;28;20426;-67
2022/03/24 05:46:33;;;;;;;22.88;15.57;;;;;;;5.78;57.61;97707.03;5071473;28;20514;-67
2022/03/24 05:48:58;;;;;;;20.63;14.63;;;;;;;6.02;57.45;97702.66;5070613;28;20422;-67
2022/03/24 05:51:25;;;;;;;22.23;15.17;;;;;;;6.14;56.67;97704.63;5059897;28;20860;-67
2022/03/24 05:53:50;;;;;;;20.85;14.77;;;;;;;6.44;55.64;97704.69;5071999;28;20747;-67
2022/03/24 05:56:16;;;;;;;25.63;15.33;;;;;;;6.74;54.91;97713.38;5070417;28;20419;-66
2022/03/24 05:58:42;;;;;;;20.83;14.10;;;;;;;6.54;55.35;97711.28;5071818;28;20583;-68
2022/03/24 06:01:09;;;;;;;20.42;14.68;;;;;;;6.73;55.41;97709.13;5060400;28;20388;-67
2022/03/24 06:03:36;;;;;;;22.47;14.80;;;;;;;6.88;54.65;97709.94;5064529;28;20401;-67
2022/03/24 06:06:04;;;;;;;22.42;14.65;;;;;;;6.89;54.47;97707.16;5061404;28;20400;-67
2022/03/24 06:08:30;;;;;;;19.23;14.48;;;;;;;6.78;55.11;97710.22;5071232;28;20391;-66
2022/03/24 06:10:56;;;;;;;21.15;14.27;;;;;;;6.82;55.12;97718.47;5070300;28;20917;-66
2022/03/24 06:13:22;;;;;;;21.50;14.97;;;;;;;6.92;54.89;97716.41;5071721;28;20387;-65
2022/03/24 06:15:50;;;;;;;23.05;15.00;;;;;;;7.18;54.28;97711.53;5070148;28;20400;-67
2022/03/24 06:18:16;;;;;;;20.77;14.50;;;;;;;7.36;53.43;97711.13;5057117;28;20393;-66
2022/03/24 06:20:43;;;;;;;22.25;14.88;;;;;;;7.83;52.04;97710.63;5051528;28;20397;-67
2022/03/24 06:23:09;;;;;;;20.73;15.20;;;;;;;8.02;51.38;97715.25;5070872;28;20430;-66
2022/03/24 06:25:35;;;;;;;21.27;14.88;;;;;;;7.97;51.24;97714.97;5069966;28;20432;-67
2022/03/24 06:28:01;;;;;;;20.50;14.90;;;;;;;8.16;50.53;97716.16;5071794;28;20449;-67
2022/03/24 06:30:26;;;;;;;20.70;15.00;;;;;;;8.49;50.23;97726.88;5070864;28;20391;-67
2022/03/24 06:32:52;;;;;;;21.07;14.70;;;;;;;8.73;49.59;97721.25;5054679;28;20397;-67
2022/03/24 06:35:18;;;;;;;20.67;15.27;;;;;;;8.57;49.59;97724.16;5052523;28;20408;-67
2022/03/24 06:37:44;;;;;;;23.17;14.57;;;;;;;8.88;49.14;97727.16;5052083;28;20385;-66
2022/03/24 06:40:11;;;;;;;22.92;14.52;;;;;;;8.90;49.11;97719.94;5051439;28;20385;-67
2022/03/24 06:42:37;;;;;;;19.73;14.32;;;;;;;9.09;48.85;97721.03;5071053;28;20430;-70
2022/03/24 06:45:04;;;;;;;21.45;14.73;;;;;;;9.03;48.98;97720.00;5064291;28;20425;-68
2022/03/24 06:47:31;;;;;;;22.63;14.93;;;;;;;9.51;48.04;97717.38;5050470;28;20870;-67
2022/03/24 06:49:56;;;;;;;21.65;14.48;;;;;;;9.23;48.30;97721.91;5051610;28;20480;-65
2022/03/24 06:52:21;;;;;;;22.25;15.38;;;;;;;9.70;47.46;97716.63;5051741;28;20393;-65
2022/03/24 06:54:47;;;;;;;23.17;15.67;;;;;;;10.14;46.00;97715.31;5063155;28;20440;-66
2022/03/24 06:57:14;;;;;;;23.23;15.63;;;;;;;10.05;45.50;97719.91;5091602;28;20884;-67
2022/03/24 06:59:43;;;;;;;21.92;15.85;;;;;;;10.06;45.57;97716.28;5073198;28;20899;-67
2022/03/24 07:02:09;;;;;;;22.90;15.50;;;;;;;10.07;44.77;97724.97;5091607;28;20402;-67
2022/03/24 07:04:35;;;;;;;23.45;15.07;;;;;;;10.27;44.37;97725.81;5088386;28;20481;-67
2022/03/24 07:07:01;;;;;;;22.63;15.30;;;;;;;10.23;44.96;97720.16;5071189;28;20455;-66
2022/03/24 07:09:26;;;;;;;22.48;15.35;;;;;;;10.46;44.92;97727.63;5071220;28;20504;-65
2022/03/24 07:11:52;;;;;;;22.77;15.70;;;;;;;10.68;44.35;97729.03;5084724;28;20400;-66
2022/03/24 07:14:17;;;;;;;21.83;14.93;;;;;;;10.48;44.55;97733.47;5089279;28;20421;-66
2022/03/24 07:16:43;;;;;;;21.73;15.80;;;;;;;10.90;43.67;97726.16;5090377;28;20418;-65
2022/03/24 07:19:09;;;;;;;22.48;15.18;;;;;;;10.90;44.17;97728.78;5091303;28;20389;-65
2022/03/24 07:21:35;;;;;;;21.83;15.25;;;;;;;10.99;44.02;97730.97;5080666;28;20388;-65
2022/03/24 07:24:00;;;;;;;22.23;15.75;;;;;;;11.13;43.84;97724.69;5066759;28;20973;-66
2022/03/24 07:26:26;;;;;;;23.63;16.00;;;;;;;11.03;43.78;97732.19;5088180;28;20481;-66
2022/03/24 07:28:51;;;;;;;21.25;15.32;;;;;;;11.31;43.32;97729.28;5078584;28;20504;-67
2022/03/24 07:31:19;;;;;;;20.27;15.53;;;;;;;11.41;44.46;97728.84;5080742;28;20388;-66
2022/03/24 07:33:44;;;;;;;23.17;15.48;;;;;;;11.04;46.32;97728.53;5073718;28;20399;-66
2022/03/24 07:36:10;;;;;;;21.17;15.30;;;;;;;10.97;46.24;97738.25;5076198;28;20412;-66
2022/03/24 07:38:36;;;;;;;20.97;14.70;;;;;;;11.22;46.10;97733.13;5090964;28;20925;-67
2022/03/24 07:41:02;;;;;;;23.73;15.37;;;;;;;11.39;45.61;97730.84;5055959;28;20433;-66
2022/03/24 07:43:28;;;;;;;23.35;15.75;;;;;;;11.28;46.65;97737.56;5091062;28;20425;-66
2022/03/24 07:45:53;;;;;;;20.38;15.07;;;;;;;11.42;46.72;97731.25;5083401;28;20432;-66
2022/03/24 07:48:25;;;;;;;21.40;15.68;;;;;;;11.71;46.27;97734.31;5063155;28;20424;-67
2022/03/24 07:50:53;;;;;;;26.05;15.57;;;;;;;11.66;46.32;97733.16;5089959;28;20390;-66
2022/03/24 07:53:28;;;;;;;22.75;16.05;;;;;;;11.59;46.43;97736.84;5094057;28;20693;-67
2022/03/24 07:55:58;;;;;;;25.95;15.95;;;;;;;11.92;45.40;97736.69;5088816;28;20502;-66
2022/03/24 07:58:24;;;;;;;16.63;11.93;;;;;;;12.67;63.65;97740.16;5059989;28;20395;-71
2022/03/24 08:00:50;;;;;;;20.33;15.17;;;;;;;13.40;49.80;97735.78;5093414;28;20446;-69
2022/03/24 08:03:20;;;;;;;21.63;15.93;;;;;;;12.85;44.37;97743.63;5089848;28;20441;-66
2022/03/24 08:05:47;;;;;;;22.58;15.32;;;;;;;12.54;45.12;97735.81;5074970;28;20399;-66
2022/03/24 08:08:13;;;;;;;23.27;15.55;;;;;;;12.46;45.74;97746.63;5075201;28;20812;-67
2022/03/24 08:10:42;;;;;;;24.20;16.33;;;;;;;12.28;45.32;97742.09;5073961;28;20408;-66
2022/03/24 08:13:09;;;;;;;23.55;15.55;;;;;;;12.49;45.22;97744.34;5073713;28;20391;-67
2022/03/24 08:15:36;;;;;;;23.27;16.00;;;;;;;12.73;44.67;97744.56;5073322;28;20771;-67
2022/03/24 08:18:04;;;;;;;21.50;15.85;;;;;;;12.61;44.75;97741.03;5082796;28;20385;-67
2022/03/24 08:20:30;;;;;;;22.98;16.60;;;;;;;12.73;44.88;97744.56;5074090;28;20403;-66
2022/03/24 08:22:55;;;;;;;22.97;16.50;;;;;;;12.63;43.86;97749.50;5074043;28;20774;-67
2022/03/24 08:25:20;;;;;;;28.13;17.03;;;;;;;12.68;44.25;97741.78;5055705;28;20415;-67
2022/03/24 08:27:46;;;;;;;23.13;16.57;;;;;;;12.90;44.02;97750.88;5078814;28;20394;-67
2022/03/24 08:30:12;;;;;;;25.92;16.50;;;;;;;12.87;43.70;97752.09;5086416;28;20874;-66
2022/03/24 08:32:38;;;;;;;22.13;16.42;;;;;;;12.76;43.62;97744.16;5077544;28;20740;-66
2022/03/24 08:35:04;;;;;;;25.60;16.75;;;;;;;12.96;43.67;97751.84;5073754;28;20772;-66
2022/03/24 08:37:30;;;;;;;23.42;17.30;;;;;;;13.17;43.44;97752.25;5073774;28;20773;-66
2022/03/24 08:39:56;;;;;;;22.70;16.23;;;;;;;13.44;42.70;97747.47;5070193;28;20473;-65
2022/03/24 08:42:21;;;;;;;22.87;17.27;;;;;;;13.28;42.13;97742.81;5092908;28;20476;-67
2022/03/24 08:44:46;;;;;;;26.60;17.45;;;;;;;13.10;42.41;97745.41;5091836;28;20400;-67
2022/03/24 08:47:12;;;;;;;22.73;17.00;;;;;;;13.44;42.07;97746.69;5093152;28;20387;-67
2022/03/24 08:49:37;;;;;;;23.93;17.13;;;;;;;13.46;41.51;97752.53;5082184;28;20388;-66
2022/03/24 08:52:03;;;;;;;29.13;16.73;;;;;;;13.66;41.60;97747.81;5073245;28;20872;-67
2022/03/24 08:54:29;;;;;;;22.55;16.73;;;;;;;13.72;41.36;97741.66;5066659;28;20427;-67
2022/03/24 08:56:54;;;;;;;22.07;16.40;;;;;;;13.93;40.60;97750.94;5054847;28;20480;-67
2022/03/24 08:59:20;;;;;;;22.90;16.17;;;;;;;14.36;40.94;97748.06;5053383;28;20452;-67
2022/03/24 09:01:45;;;;;;;25.97;17.73;;;;;;;13.70;41.66;97747.19;5053345;28;20885;-67
2022/03/24 09:04:10;;;;;;;21.73;15.13;;;;;;;13.33;42.24;97756.94;5061483;28;20737;-67
2022/03/24 09:06:37;;;;;;;24.53;15.40;;;;;;;13.04;42.56;97752.34;5071034;28;20454;-67
2022/03/24 09:09:03;;;;;;;21.30;14.25;;;;;;;13.23;42.17;97759.28;5072187;28;20391;-67
2022/03/24 09:11:29;;;;;;;20.30;14.73;;;;;;;13.11;42.85;97757.53;5071119;28;20744;-67
2022/03/24 09:13:54;;;;;;;20.93;14.60;;;;;;;13.16;42.46;97755.91;5071014;28;20384;-67
2022/03/24 09:16:20;;;;;;;20.07;14.83;;;;;;;12.89;43.10;97749.25;5055388;28;20428;-67
2022/03/24 09:18:46;;;;;;;19.37;14.73;;;;;;;12.95;41.80;97758.91;5052851;28;20390;-67
2022/03/24 09:21:11;;;;;;;22.20;15.73;;;;;;;12.93;41.79;97752.28;5063752;28;20421;-67
2022/03/24 09:23:37;;;;;;;21.57;15.50;;;;;;;12.88;41.97;97756.34;5052899;28;20424;-67
2022/03/24 09:26:02;;;;;;;22.70;14.63;;;;;;;13.24;41.69;97755.63;5061806;28;20403;-67
2022/03/24 09:28:28;;;;;;;23.70;15.80;;;;;;;13.24;41.68;97763.53;5069850;28;20428;-67
2022/03/24 09:30:56;;;;;;;25.35;15.77;;;;;;;13.06;42.40;97754.75;5069664;28;20391;-67
2022/03/24 09:33:21;;;;;;;23.77;15.70;;;;;;;12.68;43.38;97755.72;5050788;28;20407;-67
2022/03/24 09:35:48;;;;;;;23.87;15.67;;;;;;;12.74;42.88;97756.69;5055585;28;20396;-67
2022/03/24 09:38:14;;;;;;;28.00;15.70;;;;;;;12.92;42.51;97759.38;5071838;28;20431;-67
2022/03/24 09:40:41;;;;;;;21.73;15.60;;;;;;;12.98;42.28;97758.50;5071641;28;20923;-67
2022/03/24 09:43:07;;;;;;;24.73;15.30;;;;;;;13.28;41.47;97763.88;5052808;28;20389;-67
2022/03/24 09:45:33;;;;;;;22.03;16.00;;;;;;;13.23;41.00;97761.91;5052338;28;20393;-67
2022/03/24 09:47:58;;;;;;;23.80;15.90;;;;;;;13.26;41.17;97768.56;5066935;28;20415;-67
2022/03/24 09:50:27;;;;;;;22.35;16.10;;;;;;;13.42;39.70;97759.28;5071632;28;20391;-67
2022/03/24 09:52:53;;;;;;;21.52;15.38;;;;;;;13.29;38.38;97757.59;5054876;28;20405;-67
2022/03/24 09:55:19;;;;;;;24.23;15.30;;;;;;;13.40;38.46;97761.31;5063117;28;20426;-67
2022/03/24 09:57:48;;;;;;;22.58;15.30;;;;;;;13.32;36.82;97760.56;5074047;28;20399;-67
2022/03/24 10:00:15;;;;;;;22.65;16.27;;;;;;;13.49;37.05;97762.63;5073231;28;20474;-67
2022/03/24 10:02:41;;;;;;;23.23;15.75;;;;;;;13.38;37.36;97758.09;5091661;28;20393;-67
2022/03/24 10:05:08;;;;;;;21.20;15.60;;;;;;;13.55;34.88;97752.00;5091877;28;20394;-67
2022/03/24 10:07:46;;;;;;;20.58;15.60;;;;;;;13.68;34.42;97753.69;5076775;28;20392;-66
2022/03/24 10:10:25;;;;;;;19.55;14.77;;;;;;;13.51;32.76;97755.31;5053953;28;20388;-67
2022/03/24 10:12:51;;;;;;;20.85;14.68;;;;;;;13.70;32.40;97752.44;5071620;28;20761;-66
2022/03/24 10:15:17;;;;;;;18.73;14.40;;;;;;;13.71;30.68;97743.50;5072286;28;20443;-66
2022/03/24 10:17:51;;;;;;;18.05;13.30;;;;;;;13.88;29.69;97756.84;5085124;28;20393;-67
2022/03/24 10:20:17;;;;;;;21.00;14.77;;;;;;;13.70;31.29;97749.81;5089456;28;20393;-67
2022/03/24 10:22:52;;;;;;;19.02;15.00;;;;;;;13.90;31.82;97738.19;5086005;28;20806;-67
2022/03/24 10:25:26;;;;;;;19.17;14.27;;;;;;;14.04;30.45;97739.63;5091500;28;20397;-66
2022/03/24 10:28:19;;;;;;;20.58;15.10;;;;;;;13.95;31.81;97746.22;5058281;28;20666;-67
2022/03/24 10:30:55;;;;;;;20.55;15.32;;;;;;;14.06;31.79;97738.34;5071562;28;20396;-66
2022/03/24 10:33:33;;;;;;;24.27;16.27;;;;;;;13.91;34.41;97747.72;5088571;28;20422;-67
2022/03/24 10:36:09;;;;;;;22.77;16.15;;;;;;;13.92;36.17;97744.84;5091556;28;20423;-67
2022/03/24 10:38:37;;;;;;;23.13;16.95;;;;;;;14.23;35.86;97742.97;5092182;28;20393;-66
2022/03/24 10:41:16;;;;;;;26.10;16.77;;;;;;;14.35;34.51;97741.97;5073807;28;20390;-67
2022/03/24 10:43:42;;;;;;;21.70;15.82;;;;;;;14.17;34.66;97739.41;5085070;28;20869;-66
2022/03/24 10:46:28;;;;;;;22.50;15.97;;;;;;;14.42;33.46;97732.19;5091370;28;20414;-67
2022/03/24 10:48:54;;;;;;;21.63;14.85;;;;;;;14.46;32.69;97746.50;5085640;28;20395;-67
2022/03/24 10:51:27;;;;;;;27.83;17.08;;;;;;;14.64;33.11;97744.81;5071486;28;20400;-67
2022/03/24 10:54:25;;;;;;;22.42;16.33;;;;;;;14.75;32.79;97734.25;5072573;28;20410;-67
2022/03/24 10:56:59;;;;;;;21.00;15.68;;;;;;;14.83;32.61;97728.63;5076723;28;20490;-67
2022/03/24 10:59:28;;;;;;;24.98;16.85;;;;;;;14.82;33.10;97731.50;5080572;28;20484;-67
2022/03/24 11:01:54;;;;;;;23.15;16.20;;;;;;;14.71;33.40;97730.44;5079728;28;20455;-67
2022/03/24 11:04:19;;;;;;;23.17;17.30;;;;;;;15.03;34.27;97735.41;5072926;28;20383;-68
2022/03/24 11:06:49;;;;;;;26.83;16.70;;;;;;;15.21;32.61;97724.69;5053491;28;20452;-68
2022/03/24 11:09:29;;;;;;;24.02;16.85;;;;;;;14.92;33.18;97726.44;5071035;28;20476;-67
2022/03/24 11:12:32;;;;;;;22.75;15.85;;;;;;;15.12;31.34;97731.34;5087249;28;20386;-68
2022/03/24 11:14:59;;;;;;;21.08;14.85;;;;;;;14.96;30.29;97736.31;5071534;28;20419;-67
2022/03/24 11:17:27;;;;;;;22.38;16.08;;;;;;;14.96;30.52;97727.59;5070841;28;20400;-67
2022/03/24 11:20:25;;;;;;;24.60;16.30;;;;;;;15.03;29.31;97728.28;5086995;28;20396;-67
2022/03/24 11:23:00;;;;;;;21.65;16.20;;;;;;;15.26;31.24;97720.31;5069593;28;20413;-66